sensor_id;sensor_type;location;lat;lon;timestamp;temperature;humidity
4697;DHT22;2362;50.780;0.292;2022-10-19T00:01:42;15.10;99.90
4697;DHT22;2362;50.780;0.292;2022-10-19T00:04:08;15.00;99.90
4697;DHT22;2362;50.780;0.292;2022-10-19T00:06:35;15.00;99.90
4697;DHT22;2362;50.780;0.292;2022-10-19T00:11:30;14.90;99.90
4697;DHT22;2362;50.780;0.292;2022-10-19T00:13:57;14.90;99.90
4697;DHT22;2362;50.780;0.292;2022-10-19T00:16:26;14.90;99.90
4697;DHT22;2362;50.780;0.292;2022-10-19T00:19:20;14.90;99.90
4697;DHT22;2362;50.780;0.292;2022-10-19T00:21:48;14.80;99.90
4697;DHT22;2362;50.780;0.292;2022-10-19T00:24:14;14.90;99.90
4697;DHT22;2362;50.780;0.292;2022-10-19T00:26:40;14.90;99.90
4697;DHT22;2362;50.780;0.292;2022-10-19T00:29:06;14.90;99.90
4697;DHT22;2362;50.780;0.292;2022-10-19T00:31:32;14.80;99.90
4697;DHT22;2362;50.780;0.292;2022-10-19T00:33:59;14.80;99.90
4697;DHT22;2362;50.780;0.292;2022-10-19T00:36:27;14.80;99.90
4697;DHT22;2362;50.780;0.292;2022-10-19T00:38:54;14.80;99.90
4697;DHT22;2362;50.780;0.292;2022-10-19T00:41:21;14.80;99.90
4697;DHT22;2362;50.780;0.292;2022-10-19T00:44:00;14.80;99.90
4697;DHT22;2362;50.780;0.292;2022-10-19T00:46:29;14.80;99.90
4697;DHT22;2362;50.780;0.292;2022-10-19T00:49:24;14.80;99.90
4697;DHT22;2362;50.780;0.292;2022-10-19T00:51:54;14.80;99.90
4697;DHT22;2362;50.780;0.292;2022-10-19T00:54:20;14.80;99.90
4697;DHT22;2362;50.780;0.292;2022-10-19T00:56:48;14.80;99.90
4697;DHT22;2362;50.780;0.292;2022-10-19T00:59:18;14.70;99.90
4697;DHT22;2362;50.780;0.292;2022-10-19T01:02:09;14.70;99.90
4697;DHT22;2362;50.780;0.292;2022-10-19T01:04:37;14.70;99.90
4697;DHT22;2362;50.780;0.292;2022-10-19T01:07:05;14.70;99.90
4697;DHT22;2362;50.780;0.292;2022-10-19T01:09:32;14.70;99.90
4697;DHT22;2362;50.780;0.292;2022-10-19T01:29:21;14.50;99.90
4697;DHT22;2362;50.780;0.292;2022-10-19T01:32:06;14.50;99.90
4697;DHT22;2362;50.780;0.292;2022-10-19T01:40:10;14.50;99.90
4697;DHT22;2362;50.780;0.292;2022-10-19T01:43:01;14.60;99.90
4697;DHT22;2362;50.780;0.292;2022-10-19T01:48:09;14.50;99.90
4697;DHT22;2362;50.780;0.292;2022-10-19T01:50:56;14.40;99.90
4697;DHT22;2362;50.780;0.292;2022-10-19T01:53:26;14.40;99.90
4697;DHT22;2362;50.780;0.292;2022-10-19T01:55:54;14.40;99.90
4697;DHT22;2362;50.780;0.292;2022-10-19T01:58:25;14.40;99.90
4697;DHT22;2362;50.780;0.292;2022-10-19T02:00:53;14.40;99.90
4697;DHT22;2362;50.780;0.292;2022-10-19T02:03:21;14.40;99.90
4697;DHT22;2362;50.780;0.292;2022-10-19T02:05:49;14.40;99.90
4697;DHT22;2362;50.780;0.292;2022-10-19T02:08:27;14.40;99.90
4697;DHT22;2362;50.780;0.292;2022-10-19T02:10:53;14.30;99.90
4697;DHT22;2362;50.780;0.292;2022-10-19T02:13:20;14.40;99.90
4697;DHT22;2362;50.780;0.292;2022-10-19T02:16:19;14.40;99.90
4697;DHT22;2362;50.780;0.292;2022-10-19T02:19:13;14.40;99.90
4697;DHT22;2362;50.780;0.292;2022-10-19T02:21:40;14.30;99.90
4697;DHT22;2362;50.780;0.292;2022-10-19T02:24:06;14.40;99.90
4697;DHT22;2362;50.780;0.292;2022-10-19T02:26:32;14.40;99.90
4697;DHT22;2362;50.780;0.292;2022-10-19T02:28:57;14.30;99.90
4697;DHT22;2362;50.780;0.292;2022-10-19T02:31:24;14.30;99.90
4697;DHT22;2362;50.780;0.292;2022-10-19T02:33:50;14.40;99.90
4697;DHT22;2362;50.780;0.292;2022-10-19T02:36:17;14.30;99.90
4697;DHT22;2362;50.780;0.292;2022-10-19T02:38:44;14.30;99.90
4697;DHT22;2362;50.780;0.292;2022-10-19T02:41:22;14.30;99.90
4697;DHT22;2362;50.780;0.292;2022-10-19T02:43:55;14.20;99.90
4697;DHT22;2362;50.780;0.292;2022-10-19T02:46:48;14.30;99.90
4697;DHT22;2362;50.780;0.292;2022-10-19T02:49:41;14.30;99.90
4697;DHT22;2362;50.780;0.292;2022-10-19T02:52:36;14.20;99.90
4697;DHT22;2362;50.780;0.292;2022-10-19T02:55:03;14.20;99.90
4697;DHT22;2362;50.780;0.292;2022-10-19T02:57:28;14.20;99.90
4697;DHT22;2362;50.780;0.292;2022-10-19T02:59:56;14.20;99.90
4697;DHT22;2362;50.780;0.292;2022-10-19T03:02:22;14.20;99.90
4697;DHT22;2362;50.780;0.292;2022-10-19T03:04:48;14.20;99.90
4697;DHT22;2362;50.780;0.292;2022-10-19T03:07:17;14.20;99.90
4697;DHT22;2362;50.780;0.292;2022-10-19T03:09:43;14.20;99.90
4697;DHT22;2362;50.780;0.292;2022-10-19T03:12:10;14.20;99.90
4697;DHT22;2362;50.780;0.292;2022-10-19T03:14:36;14.20;99.90
4697;DHT22;2362;50.780;0.292;2022-10-19T03:17:04;14.20;99.90
4697;DHT22;2362;50.780;0.292;2022-10-19T03:19:31;14.20;99.90
4697;DHT22;2362;50.780;0.292;2022-10-19T03:21:57;14.20;99.90
4697;DHT22;2362;50.780;0.292;2022-10-19T03:24:23;14.20;99.90
4697;DHT22;2362;50.780;0.292;2022-10-19T03:26:48;14.20;99.90
4697;DHT22;2362;50.780;0.292;2022-10-19T03:29:14;14.20;99.90
4697;DHT22;2362;50.780;0.292;2022-10-19T03:31:40;14.20;99.90
4697;DHT22;2362;50.780;0.292;2022-10-19T03:34:05;14.20;99.90
4697;DHT22;2362;50.780;0.292;2022-10-19T03:36:33;14.20;99.90
4697;DHT22;2362;50.780;0.292;2022-10-19T03:39:02;14.20;99.90
4697;DHT22;2362;50.780;0.292;2022-10-19T03:41:31;14.20;99.90
4697;DHT22;2362;50.780;0.292;2022-10-19T03:43:57;14.20;99.90
4697;DHT22;2362;50.780;0.292;2022-10-19T03:46:23;14.20;99.90
4697;DHT22;2362;50.780;0.292;2022-10-19T03:48:49;14.10;99.90
4697;DHT22;2362;50.780;0.292;2022-10-19T03:51:40;14.10;99.90
4697;DHT22;2362;50.780;0.292;2022-10-19T03:54:31;14.20;99.90
4697;DHT22;2362;50.780;0.292;2022-10-19T03:57:22;14.10;99.90
4697;DHT22;2362;50.780;0.292;2022-10-19T04:00:14;14.10;99.90
4697;DHT22;2362;50.780;0.292;2022-10-19T04:02:39;14.10;99.90
4697;DHT22;2362;50.780;0.292;2022-10-19T04:05:06;14.10;99.90
4697;DHT22;2362;50.780;0.292;2022-10-19T04:07:31;14.10;99.90
4697;DHT22;2362;50.780;0.292;2022-10-19T04:09:57;14.10;99.90
4697;DHT22;2362;50.780;0.292;2022-10-19T04:12:23;14.10;99.90
4697;DHT22;2362;50.780;0.292;2022-10-19T04:14:48;14.20;99.90
4697;DHT22;2362;50.780;0.292;2022-10-19T04:17:14;14.10;99.90
4697;DHT22;2362;50.780;0.292;2022-10-19T04:19:40;14.10;99.90
4697;DHT22;2362;50.780;0.292;2022-10-19T04:22:08;14.10;99.90
4697;DHT22;2362;50.780;0.292;2022-10-19T04:24:33;14.20;99.90
4697;DHT22;2362;50.780;0.292;2022-10-19T04:26:59;14.20;99.90
4697;DHT22;2362;50.780;0.292;2022-10-19T04:29:25;14.20;99.90
4697;DHT22;2362;50.780;0.292;2022-10-19T04:31:51;14.10;99.90
4697;DHT22;2362;50.780;0.292;2022-10-19T04:34:18;14.20;99.90
4697;DHT22;2362;50.780;0.292;2022-10-19T04:36:44;14.10;99.90
4697;DHT22;2362;50.780;0.292;2022-10-19T04:39:09;14.10;99.90
4697;DHT22;2362;50.780;0.292;2022-10-19T04:41:36;14.10;99.90
4697;DHT22;2362;50.780;0.292;2022-10-19T04:44:03;14.10;99.90
4697;DHT22;2362;50.780;0.292;2022-10-19T04:46:30;14.10;99.90
4697;DHT22;2362;50.780;0.292;2022-10-19T04:48:58;14.10;99.90
4697;DHT22;2362;50.780;0.292;2022-10-19T04:51:48;14.10;99.90
4697;DHT22;2362;50.780;0.292;2022-10-19T04:54:39;14.10;99.90
4697;DHT22;2362;50.780;0.292;2022-10-19T04:57:30;14.20;99.90
4697;DHT22;2362;50.780;0.292;2022-10-19T05:00:21;14.10;99.90
4697;DHT22;2362;50.780;0.292;2022-10-19T05:02:47;14.10;99.90
4697;DHT22;2362;50.780;0.292;2022-10-19T05:05:13;14.10;99.90
4697;DHT22;2362;50.780;0.292;2022-10-19T05:07:39;14.10;99.90
4697;DHT22;2362;50.780;0.292;2022-10-19T05:10:11;14.10;99.90
4697;DHT22;2362;50.780;0.292;2022-10-19T05:12:36;14.10;99.90
4697;DHT22;2362;50.780;0.292;2022-10-19T05:15:03;14.10;99.90
4697;DHT22;2362;50.780;0.292;2022-10-19T05:17:30;14.20;99.90
4697;DHT22;2362;50.780;0.292;2022-10-19T05:19:56;14.10;99.90
4697;DHT22;2362;50.780;0.292;2022-10-19T05:22:22;14.20;99.90
4697;DHT22;2362;50.780;0.292;2022-10-19T05:25:12;14.10;99.90
4697;DHT22;2362;50.780;0.292;2022-10-19T05:27:38;14.20;99.90
4697;DHT22;2362;50.780;0.292;2022-10-19T05:30:04;14.10;99.90
4697;DHT22;2362;50.780;0.292;2022-10-19T05:32:31;14.10;99.90
4697;DHT22;2362;50.780;0.292;2022-10-19T05:34:57;14.20;99.90
4697;DHT22;2362;50.780;0.292;2022-10-19T05:37:22;14.10;99.90
4697;DHT22;2362;50.780;0.292;2022-10-19T05:39:50;14.20;99.90
4697;DHT22;2362;50.780;0.292;2022-10-19T05:42:15;14.20;99.90
4697;DHT22;2362;50.780;0.292;2022-10-19T05:44:41;14.20;99.90
4697;DHT22;2362;50.780;0.292;2022-10-19T05:47:07;14.30;99.90
4697;DHT22;2362;50.780;0.292;2022-10-19T05:49:33;14.30;99.90
4697;DHT22;2362;50.780;0.292;2022-10-19T05:51:58;14.30;99.90
4697;DHT22;2362;50.780;0.292;2022-10-19T05:54:24;14.30;99.90
4697;DHT22;2362;50.780;0.292;2022-10-19T05:56:50;14.30;99.90
4697;DHT22;2362;50.780;0.292;2022-10-19T05:59:18;14.30;99.90
4697;DHT22;2362;50.780;0.292;2022-10-19T06:01:45;14.30;99.90
4697;DHT22;2362;50.780;0.292;2022-10-19T06:04:11;14.30;99.90
4697;DHT22;2362;50.780;0.292;2022-10-19T06:06:40;14.30;99.90
4697;DHT22;2362;50.780;0.292;2022-10-19T06:09:06;14.30;99.90
4697;DHT22;2362;50.780;0.292;2022-10-19T06:11:35;14.30;99.90
4697;DHT22;2362;50.780;0.292;2022-10-19T06:14:03;14.30;99.90
4697;DHT22;2362;50.780;0.292;2022-10-19T06:16:30;14.30;99.90
4697;DHT22;2362;50.780;0.292;2022-10-19T06:18:57;14.40;99.90
4697;DHT22;2362;50.780;0.292;2022-10-19T06:21:25;14.30;99.90
4697;DHT22;2362;50.780;0.292;2022-10-19T06:23:52;14.40;99.90
4697;DHT22;2362;50.780;0.292;2022-10-19T06:26:19;14.40;99.90
4697;DHT22;2362;50.780;0.292;2022-10-19T06:28:46;14.30;99.90
4697;DHT22;2362;50.780;0.292;2022-10-19T06:31:12;14.30;99.90
4697;DHT22;2362;50.780;0.292;2022-10-19T06:33:39;14.40;99.90
4697;DHT22;2362;50.780;0.292;2022-10-19T06:38:31;14.40;99.90
4697;DHT22;2362;50.780;0.292;2022-10-19T06:40:58;14.30;99.90
4697;DHT22;2362;50.780;0.292;2022-10-19T06:43:24;14.30;99.90
4697;DHT22;2362;50.780;0.292;2022-10-19T06:49:06;14.30;99.90
4697;DHT22;2362;50.780;0.292;2022-10-19T06:51:32;14.20;99.90
4697;DHT22;2362;50.780;0.292;2022-10-19T06:54:00;14.20;99.90
4697;DHT22;2362;50.780;0.292;2022-10-19T06:56:26;14.20;99.90
4697;DHT22;2362;50.780;0.292;2022-10-19T06:58:52;14.20;99.90
4697;DHT22;2362;50.780;0.292;2022-10-19T07:01:18;14.30;99.90
4697;DHT22;2362;50.780;0.292;2022-10-19T07:03:44;14.30;99.90
4697;DHT22;2362;50.780;0.292;2022-10-19T07:06:11;14.30;99.90
4697;DHT22;2362;50.780;0.292;2022-10-19T07:08:38;14.30;99.90
4697;DHT22;2362;50.780;0.292;2022-10-19T07:11:07;14.30;99.90
4697;DHT22;2362;50.780;0.292;2022-10-19T07:13:33;14.30;99.90
4697;DHT22;2362;50.780;0.292;2022-10-19T07:16:04;14.30;99.90
4697;DHT22;2362;50.780;0.292;2022-10-19T07:18:32;14.30;99.90
4697;DHT22;2362;50.780;0.292;2022-10-19T07:21:00;14.30;99.90
4697;DHT22;2362;50.780;0.292;2022-10-19T07:23:30;14.30;99.90
4697;DHT22;2362;50.780;0.292;2022-10-19T07:25:56;14.30;99.90
4697;DHT22;2362;50.780;0.292;2022-10-19T07:28:27;14.40;99.90
4697;DHT22;2362;50.780;0.292;2022-10-19T07:30:53;14.40;99.90
4697;DHT22;2362;50.780;0.292;2022-10-19T07:33:19;14.40;99.90
4697;DHT22;2362;50.780;0.292;2022-10-19T07:35:45;14.30;99.90
4697;DHT22;2362;50.780;0.292;2022-10-19T07:38:10;14.40;99.90
4697;DHT22;2362;50.780;0.292;2022-10-19T07:40:36;14.40;99.90
4697;DHT22;2362;50.780;0.292;2022-10-19T07:43:02;14.30;99.90
4697;DHT22;2362;50.780;0.292;2022-10-19T07:45:28;14.30;99.90
4697;DHT22;2362;50.780;0.292;2022-10-19T07:47:54;14.40;99.90
4697;DHT22;2362;50.780;0.292;2022-10-19T07:50:20;14.40;99.90
4697;DHT22;2362;50.780;0.292;2022-10-19T07:52:50;14.40;99.90
4697;DHT22;2362;50.780;0.292;2022-10-19T07:55:17;14.40;99.90
4697;DHT22;2362;50.780;0.292;2022-10-19T07:57:46;14.50;99.90
4697;DHT22;2362;50.780;0.292;2022-10-19T08:00:12;14.50;99.90
4697;DHT22;2362;50.780;0.292;2022-10-19T08:02:37;14.60;99.90
4697;DHT22;2362;50.780;0.292;2022-10-19T08:05:03;14.60;99.90
4697;DHT22;2362;50.780;0.292;2022-10-19T08:07:32;14.70;99.90
4697;DHT22;2362;50.780;0.292;2022-10-19T08:09:58;14.70;99.90
4697;DHT22;2362;50.780;0.292;2022-10-19T08:12:23;14.70;99.90
4697;DHT22;2362;50.780;0.292;2022-10-19T08:14:49;14.80;99.90
4697;DHT22;2362;50.780;0.292;2022-10-19T08:17:15;14.80;99.90
4697;DHT22;2362;50.780;0.292;2022-10-19T08:19:42;14.80;99.90
4697;DHT22;2362;50.780;0.292;2022-10-19T08:22:09;14.90;99.90
4697;DHT22;2362;50.780;0.292;2022-10-19T08:24:35;15.00;99.90
4697;DHT22;2362;50.780;0.292;2022-10-19T08:27:03;15.00;99.90
4697;DHT22;2362;50.780;0.292;2022-10-19T08:29:29;14.90;99.90
4697;DHT22;2362;50.780;0.292;2022-10-19T08:31:54;15.00;99.90
4697;DHT22;2362;50.780;0.292;2022-10-19T08:34:20;15.10;99.90
4697;DHT22;2362;50.780;0.292;2022-10-19T08:36:46;15.00;99.90
4697;DHT22;2362;50.780;0.292;2022-10-19T08:39:12;15.00;99.90
4697;DHT22;2362;50.780;0.292;2022-10-19T08:49:40;15.00;99.90
4697;DHT22;2362;50.780;0.292;2022-10-19T08:52:20;15.00;99.90
4697;DHT22;2362;50.780;0.292;2022-10-19T08:54:56;15.00;99.90
4697;DHT22;2362;50.780;0.292;2022-10-19T09:03:30;15.20;99.90
4697;DHT22;2362;50.780;0.292;2022-10-19T09:08:57;15.30;99.90
4697;DHT22;2362;50.780;0.292;2022-10-19T09:11:29;15.30;99.90
4697;DHT22;2362;50.780;0.292;2022-10-19T09:14:12;15.40;99.90
4697;DHT22;2362;50.780;0.292;2022-10-19T09:16:41;15.30;99.90
4697;DHT22;2362;50.780;0.292;2022-10-19T09:19:22;15.30;99.90
4697;DHT22;2362;50.780;0.292;2022-10-19T09:22:00;15.40;99.90
4697;DHT22;2362;50.780;0.292;2022-10-19T09:27:22;15.40;99.90
4697;DHT22;2362;50.780;0.292;2022-10-19T09:29:56;15.30;99.90
4697;DHT22;2362;50.780;0.292;2022-10-19T09:32:36;15.30;99.90
4697;DHT22;2362;50.780;0.292;2022-10-19T09:37:50;15.40;99.90
4697;DHT22;2362;50.780;0.292;2022-10-19T09:40:19;15.30;99.90
4697;DHT22;2362;50.780;0.292;2022-10-19T09:42:45;15.30;99.90
4697;DHT22;2362;50.780;0.292;2022-10-19T09:45:18;15.30;99.90
4697;DHT22;2362;50.780;0.292;2022-10-19T09:47:48;15.10;99.90
4697;DHT22;2362;50.780;0.292;2022-10-19T09:50:23;15.20;99.90
4697;DHT22;2362;50.780;0.292;2022-10-19T09:53:18;15.30;99.90
4697;DHT22;2362;50.780;0.292;2022-10-19T09:55:50;15.30;99.90
4697;DHT22;2362;50.780;0.292;2022-10-19T09:58:19;15.20;99.90
4697;DHT22;2362;50.780;0.292;2022-10-19T10:00:46;15.20;99.90
4697;DHT22;2362;50.780;0.292;2022-10-19T10:03:37;15.20;99.90
4697;DHT22;2362;50.780;0.292;2022-10-19T10:06:14;15.30;99.90
4697;DHT22;2362;50.780;0.292;2022-10-19T10:08:52;15.40;99.90
4697;DHT22;2362;50.780;0.292;2022-10-19T10:11:26;15.50;99.90
4697;DHT22;2362;50.780;0.292;2022-10-19T10:13:53;15.40;99.90
4697;DHT22;2362;50.780;0.292;2022-10-19T10:16:21;15.30;99.90
4697;DHT22;2362;50.780;0.292;2022-10-19T10:21:22;15.40;99.90
4697;DHT22;2362;50.780;0.292;2022-10-19T10:26:45;15.40;99.90
4697;DHT22;2362;50.780;0.292;2022-10-19T10:29:32;15.50;99.90
4697;DHT22;2362;50.780;0.292;2022-10-19T10:32:04;15.40;99.90
4697;DHT22;2362;50.780;0.292;2022-10-19T10:34:39;15.50;99.90
4697;DHT22;2362;50.780;0.292;2022-10-19T10:37:11;15.50;99.90
4697;DHT22;2362;50.780;0.292;2022-10-19T10:39:41;15.40;99.90
4697;DHT22;2362;50.780;0.292;2022-10-19T10:42:14;15.40;99.90
4697;DHT22;2362;50.780;0.292;2022-10-19T10:44:46;15.40;99.90
4697;DHT22;2362;50.780;0.292;2022-10-19T10:47:15;15.30;99.90
4697;DHT22;2362;50.780;0.292;2022-10-19T10:49:43;15.30;99.90
4697;DHT22;2362;50.780;0.292;2022-10-19T10:52:17;15.30;99.90
4697;DHT22;2362;50.780;0.292;2022-10-19T10:55:02;15.40;99.90
4697;DHT22;2362;50.780;0.292;2022-10-19T10:57:38;15.40;99.90
4697;DHT22;2362;50.780;0.292;2022-10-19T11:00:12;15.40;99.90
4697;DHT22;2362;50.780;0.292;2022-10-19T11:02:59;15.40;99.90
4697;DHT22;2362;50.780;0.292;2022-10-19T11:05:56;15.50;99.90
4697;DHT22;2362;50.780;0.292;2022-10-19T11:11:29;15.60;99.90
4697;DHT22;2362;50.780;0.292;2022-10-19T11:14:21;15.70;99.90
4697;DHT22;2362;50.780;0.292;2022-10-19T11:16:51;15.80;99.90
4697;DHT22;2362;50.780;0.292;2022-10-19T11:19:31;15.90;99.90
4697;DHT22;2362;50.780;0.292;2022-10-19T11:22:33;16.10;99.90
4697;DHT22;2362;50.780;0.292;2022-10-19T11:28:13;16.30;99.90
4697;DHT22;2362;50.780;0.292;2022-10-19T11:30:56;16.40;99.90
4697;DHT22;2362;50.780;0.292;2022-10-19T11:39:07;16.50;99.90
4697;DHT22;2362;50.780;0.292;2022-10-19T11:41:53;16.40;99.90
4697;DHT22;2362;50.780;0.292;2022-10-19T11:44:30;16.40;99.90
4697;DHT22;2362;50.780;0.292;2022-10-19T11:49:58;16.50;99.90
4697;DHT22;2362;50.780;0.292;2022-10-19T12:00:20;16.20;99.90
4697;DHT22;2362;50.780;0.292;2022-10-19T12:08:27;16.40;99.90
4697;DHT22;2362;50.780;0.292;2022-10-19T12:13:30;16.60;99.90
4697;DHT22;2362;50.780;0.292;2022-10-19T12:15:58;16.60;99.90
4697;DHT22;2362;50.780;0.292;2022-10-19T12:18:46;16.50;99.90
4697;DHT22;2362;50.780;0.292;2022-10-19T12:21:27;16.40;99.90
4697;DHT22;2362;50.780;0.292;2022-10-19T12:23:56;16.40;99.90
4697;DHT22;2362;50.780;0.292;2022-10-19T12:26:24;16.40;99.90
4697;DHT22;2362;50.780;0.292;2022-10-19T12:28:58;16.40;99.90
4697;DHT22;2362;50.780;0.292;2022-10-19T12:31:26;16.40;99.90
4697;DHT22;2362;50.780;0.292;2022-10-19T12:45:13;16.30;99.90
4697;DHT22;2362;50.780;0.292;2022-10-19T12:48:14;16.40;99.90
4697;DHT22;2362;50.780;0.292;2022-10-19T12:53:34;16.30;99.90
4697;DHT22;2362;50.780;0.292;2022-10-19T12:56:26;16.30;99.90
4697;DHT22;2362;50.780;0.292;2022-10-19T13:04:14;16.40;99.90
4697;DHT22;2362;50.780;0.292;2022-10-19T13:07:14;16.50;99.90
4697;DHT22;2362;50.780;0.292;2022-10-19T13:09:43;16.40;99.90
4697;DHT22;2362;50.780;0.292;2022-10-19T13:17:40;16.20;99.90
4697;DHT22;2362;50.780;0.292;2022-10-19T13:22:41;16.30;99.90
4697;DHT22;2362;50.780;0.292;2022-10-19T13:27:42;16.30;99.90
4697;DHT22;2362;50.780;0.292;2022-10-19T13:41:16;16.40;99.90
4697;DHT22;2362;50.780;0.292;2022-10-19T13:59:57;16.40;99.90
4697;DHT22;2362;50.780;0.292;2022-10-19T14:02:36;16.40;99.90
4697;DHT22;2362;50.780;0.292;2022-10-19T14:05:43;16.40;99.90
4697;DHT22;2362;50.780;0.292;2022-10-19T14:11:17;16.60;99.90
4697;DHT22;2362;50.780;0.292;2022-10-19T14:13:44;16.40;99.90
4697;DHT22;2362;50.780;0.292;2022-10-19T14:16:20;16.50;99.90
4697;DHT22;2362;50.780;0.292;2022-10-19T14:18:55;16.50;99.90
4697;DHT22;2362;50.780;0.292;2022-10-19T14:21:28;16.50;99.90
4697;DHT22;2362;50.780;0.292;2022-10-19T14:23:54;16.50;99.90
4697;DHT22;2362;50.780;0.292;2022-10-19T14:26:22;16.40;99.90
4697;DHT22;2362;50.780;0.292;2022-10-19T14:28:53;16.40;99.90
4697;DHT22;2362;50.780;0.292;2022-10-19T14:31:22;16.50;99.90
4697;DHT22;2362;50.780;0.292;2022-10-19T14:33:54;16.50;99.90
4697;DHT22;2362;50.780;0.292;2022-10-19T14:36:23;16.60;99.90
4697;DHT22;2362;50.780;0.292;2022-10-19T14:38:53;16.60;99.90
4697;DHT22;2362;50.780;0.292;2022-10-19T14:41:30;16.60;99.90
4697;DHT22;2362;50.780;0.292;2022-10-19T14:43:56;16.50;99.90
4697;DHT22;2362;50.780;0.292;2022-10-19T14:46:29;16.50;99.90
4697;DHT22;2362;50.780;0.292;2022-10-19T14:49:04;16.50;99.90
4697;DHT22;2362;50.780;0.292;2022-10-19T14:51:43;16.50;99.90
4697;DHT22;2362;50.780;0.292;2022-10-19T14:54:19;16.50;99.90
4697;DHT22;2362;50.780;0.292;2022-10-19T15:04:46;16.40;99.90
4697;DHT22;2362;50.780;0.292;2022-10-19T15:07:23;16.30;99.90
4697;DHT22;2362;50.780;0.292;2022-10-19T15:09:59;16.30;99.90
4697;DHT22;2362;50.780;0.292;2022-10-19T15:12:36;16.30;99.90
4697;DHT22;2362;50.780;0.292;2022-10-19T15:15:09;16.30;99.90
4697;DHT22;2362;50.780;0.292;2022-10-19T15:17:35;16.30;99.90
4697;DHT22;2362;50.780;0.292;2022-10-19T15:22:50;16.30;99.90
4697;DHT22;2362;50.780;0.292;2022-10-19T15:25:30;16.20;99.90
4697;DHT22;2362;50.780;0.292;2022-10-19T15:28:18;16.30;99.90
4697;DHT22;2362;50.780;0.292;2022-10-19T15:31:00;16.20;99.90
4697;DHT22;2362;50.780;0.292;2022-10-19T15:33:27;16.20;99.90
4697;DHT22;2362;50.780;0.292;2022-10-19T15:36:06;16.20;99.90
4697;DHT22;2362;50.780;0.292;2022-10-19T15:38:35;16.20;99.90
4697;DHT22;2362;50.780;0.292;2022-10-19T15:41:02;16.20;99.90
4697;DHT22;2362;50.780;0.292;2022-10-19T15:43:35;16.20;99.90
4697;DHT22;2362;50.780;0.292;2022-10-19T15:46:03;16.20;99.90
4697;DHT22;2362;50.780;0.292;2022-10-19T15:54:01;16.20;99.90
4697;DHT22;2362;50.780;0.292;2022-10-19T15:56:29;16.20;99.90
4697;DHT22;2362;50.780;0.292;2022-10-19T15:58:56;16.20;99.90
4697;DHT22;2362;50.780;0.292;2022-10-19T16:01:26;16.30;99.90
4697;DHT22;2362;50.780;0.292;2022-10-19T16:03:53;16.20;99.90
4697;DHT22;2362;50.780;0.292;2022-10-19T16:06:20;16.20;99.90
4697;DHT22;2362;50.780;0.292;2022-10-19T16:08:47;16.30;99.90
4697;DHT22;2362;50.780;0.292;2022-10-19T16:11:17;16.30;99.90
4697;DHT22;2362;50.780;0.292;2022-10-19T16:13:44;16.30;99.90
4697;DHT22;2362;50.780;0.292;2022-10-19T16:16:22;16.30;99.90
4697;DHT22;2362;50.780;0.292;2022-10-19T16:18:50;16.30;99.90
4697;DHT22;2362;50.780;0.292;2022-10-19T16:21:17;16.20;99.90
4697;DHT22;2362;50.780;0.292;2022-10-19T16:23:43;16.20;99.90
4697;DHT22;2362;50.780;0.292;2022-10-19T16:26:10;16.20;99.90
4697;DHT22;2362;50.780;0.292;2022-10-19T16:28:38;16.20;99.90
4697;DHT22;2362;50.780;0.292;2022-10-19T16:31:05;16.20;99.90
4697;DHT22;2362;50.780;0.292;2022-10-19T16:33:32;16.20;99.90
4697;DHT22;2362;50.780;0.292;2022-10-19T16:35:58;16.20;99.90
4697;DHT22;2362;50.780;0.292;2022-10-19T16:38:24;16.20;99.90
4697;DHT22;2362;50.780;0.292;2022-10-19T16:40:50;16.20;99.90
4697;DHT22;2362;50.780;0.292;2022-10-19T16:43:15;16.20;99.90
4697;DHT22;2362;50.780;0.292;2022-10-19T16:45:42;16.20;99.90
4697;DHT22;2362;50.780;0.292;2022-10-19T16:48:12;16.10;99.90
4697;DHT22;2362;50.780;0.292;2022-10-19T16:50:38;16.10;99.90
4697;DHT22;2362;50.780;0.292;2022-10-19T16:53:09;16.10;99.90
4697;DHT22;2362;50.780;0.292;2022-10-19T16:55:36;16.00;99.90
4697;DHT22;2362;50.780;0.292;2022-10-19T16:58:03;16.10;99.90
4697;DHT22;2362;50.780;0.292;2022-10-19T17:00:30;16.00;99.90
4697;DHT22;2362;50.780;0.292;2022-10-19T17:02:56;16.00;99.90
4697;DHT22;2362;50.780;0.292;2022-10-19T17:05:22;16.00;99.90
4697;DHT22;2362;50.780;0.292;2022-10-19T17:07:48;16.10;99.90
4697;DHT22;2362;50.780;0.292;2022-10-19T17:10:14;16.00;99.90
4697;DHT22;2362;50.780;0.292;2022-10-19T17:12:41;16.00;99.90
4697;DHT22;2362;50.780;0.292;2022-10-19T17:15:08;16.00;99.90
4697;DHT22;2362;50.780;0.292;2022-10-19T17:17:34;16.00;99.90
4697;DHT22;2362;50.780;0.292;2022-10-19T17:20:00;16.00;99.90
4697;DHT22;2362;50.780;0.292;2022-10-19T17:22:26;16.00;99.90
4697;DHT22;2362;50.780;0.292;2022-10-19T17:24:51;16.00;99.90
4697;DHT22;2362;50.780;0.292;2022-10-19T17:27:19;16.00;99.90
4697;DHT22;2362;50.780;0.292;2022-10-19T17:29:45;16.00;99.90
4697;DHT22;2362;50.780;0.292;2022-10-19T17:32:12;16.00;99.90
4697;DHT22;2362;50.780;0.292;2022-10-19T17:34:38;15.90;99.90
4697;DHT22;2362;50.780;0.292;2022-10-19T17:37:04;15.90;99.90
4697;DHT22;2362;50.780;0.292;2022-10-19T17:39:30;15.90;99.90
4697;DHT22;2362;50.780;0.292;2022-10-19T17:41:57;15.90;99.90
4697;DHT22;2362;50.780;0.292;2022-10-19T17:44:25;15.90;99.90
4697;DHT22;2362;50.780;0.292;2022-10-19T17:46:53;15.90;99.90
4697;DHT22;2362;50.780;0.292;2022-10-19T17:49:19;15.90;99.90
4697;DHT22;2362;50.780;0.292;2022-10-19T17:51:45;15.90;99.90
4697;DHT22;2362;50.780;0.292;2022-10-19T17:54:12;15.90;99.90
4697;DHT22;2362;50.780;0.292;2022-10-19T17:56:39;15.90;99.90
4697;DHT22;2362;50.780;0.292;2022-10-19T17:59:06;15.90;99.90
4697;DHT22;2362;50.780;0.292;2022-10-19T18:01:33;15.90;99.90
4697;DHT22;2362;50.780;0.292;2022-10-19T18:03:59;15.90;99.90
4697;DHT22;2362;50.780;0.292;2022-10-19T18:06:27;15.90;99.90
4697;DHT22;2362;50.780;0.292;2022-10-19T18:08:55;15.90;99.90
4697;DHT22;2362;50.780;0.292;2022-10-19T18:11:24;16.00;99.90
4697;DHT22;2362;50.780;0.292;2022-10-19T18:13:51;16.00;99.90
4697;DHT22;2362;50.780;0.292;2022-10-19T18:16:28;16.00;99.90
4697;DHT22;2362;50.780;0.292;2022-10-19T18:18:56;16.00;99.90
4697;DHT22;2362;50.780;0.292;2022-10-19T18:21:25;16.00;99.90
4697;DHT22;2362;50.780;0.292;2022-10-19T18:23:53;16.00;99.90
4697;DHT22;2362;50.780;0.292;2022-10-19T18:26:23;16.10;99.90
4697;DHT22;2362;50.780;0.292;2022-10-19T18:28:50;16.10;99.90
4697;DHT22;2362;50.780;0.292;2022-10-19T18:31:20;16.00;99.90
4697;DHT22;2362;50.780;0.292;2022-10-19T18:33:53;16.10;99.90
4697;DHT22;2362;50.780;0.292;2022-10-19T18:36:20;16.10;99.90
4697;DHT22;2362;50.780;0.292;2022-10-19T18:38:53;16.10;99.90
4697;DHT22;2362;50.780;0.292;2022-10-19T18:41:19;16.10;99.90
4697;DHT22;2362;50.780;0.292;2022-10-19T18:43:50;16.10;99.90
4697;DHT22;2362;50.780;0.292;2022-10-19T18:46:18;16.10;99.90
4697;DHT22;2362;50.780;0.292;2022-10-19T18:48:45;16.00;99.90
4697;DHT22;2362;50.780;0.292;2022-10-19T18:51:11;16.00;99.90
4697;DHT22;2362;50.780;0.292;2022-10-19T18:53:37;16.00;99.90
4697;DHT22;2362;50.780;0.292;2022-10-19T18:56:06;16.00;99.90
4697;DHT22;2362;50.780;0.292;2022-10-19T18:58:33;16.00;99.90
4697;DHT22;2362;50.780;0.292;2022-10-19T19:01:06;16.00;99.90
4697;DHT22;2362;50.780;0.292;2022-10-19T19:03:33;16.00;99.90
4697;DHT22;2362;50.780;0.292;2022-10-19T19:06:01;16.00;99.90
4697;DHT22;2362;50.780;0.292;2022-10-19T19:08:27;16.00;99.90
4697;DHT22;2362;50.780;0.292;2022-10-19T19:10:54;16.00;99.90
4697;DHT22;2362;50.780;0.292;2022-10-19T19:13:20;16.00;99.90